Time;durP1;ratioP1;P1;durP2;ratioP2;P2;SDS_P1;SDS_P2;PMS_P1;PMS_P2;Temp;Humidity;BMP_temperature;BMP_pressure;BME280_temperature;BME280_humidity;BME280_pressure;Samples;Min_cycle;Max_cycle;Signal;HPM_P1;HPM_P2
2020/12/05 00:00:21;;;;;;;;;;;18.60;73.50;;;;;;1848965;75;20453;-77
2020/12/05 00:02:50;;;;;;;;;;;18.60;74.20;;;;;;1849076;75;20706;-76
2020/12/05 00:05:20;;;;;;;;;;;18.60;73.60;;;;;;1841233;75;20409;-75
2020/12/05 00:07:51;;;;;;;;;;;18.60;74.20;;;;;;1879687;74;20824;-75
2020/12/05 00:10:21;;;;;;;;;;;18.70;74.70;;;;;;1853560;75;20321;-80
2020/12/05 00:13:02;;;;;;;;;;;18.70;74.40;;;;;;1878414;74;20233;-78
2020/12/05 00:15:40;;;;;;;;;;;18.80;73.70;;;;;;1888266;74;20191;-76
2020/12/05 00:18:18;;;;;;;;;;;18.80;73.90;;;;;;1880652;74;20610;-75
2020/12/05 00:20:48;;;;;;;;;;;18.80;74.90;;;;;;1878696;74;20516;-76
2020/12/05 00:23:17;;;;;;;;;;;18.80;74.60;;;;;;1882315;74;20196;-79
2020/12/05 00:25:48;;;;;;;;;;;18.90;74.10;;;;;;1882821;74;20236;-67
2020/12/05 00:28:17;;;;;;;;;;;18.90;74.40;;;;;;1887693;74;20205;-69
2020/12/05 00:30:48;;;;;;;;;;;19.00;73.80;;;;;;1871162;74;20287;-71
2020/12/05 00:33:17;;;;;;;;;;;19.00;73.60;;;;;;1884459;74;20702;-70
2020/12/05 00:35:47;;;;;;;;;;;19.10;73.30;;;;;;1881427;74;20238;-70
2020/12/05 00:38:18;;;;;;;;;;;19.10;73.10;;;;;;1852204;76;20204;-71
2020/12/05 00:40:49;;;;;;;;;;;19.20;72.90;;;;;;1876311;75;20215;-70
2020/12/05 00:43:27;;;;;;;;;;;19.20;72.70;;;;;;1868958;75;20736;-69
2020/12/05 00:46:04;;;;;;;;;;;19.20;73.40;;;;;;1867170;75;20252;-69
2020/12/05 00:48:40;;;;;;;;;;;19.20;72.80;;;;;;1842542;76;20170;-70
2020/12/05 00:51:12;;;;;;;;;;;19.20;72.40;;;;;;1886477;74;20209;-69
2020/12/05 00:53:42;;;;;;;;;;;19.20;73.70;;;;;;1888786;74;20469;-70
2020/12/05 00:56:11;;;;;;;;;;;19.20;72.70;;;;;;1881123;75;20560;-70
2020/12/05 00:58:42;;;;;;;;;;;19.20;72.60;;;;;;1879225;74;20159;-69
2020/12/05 01:01:12;;;;;;;;;;;19.20;72.10;;;;;;1883213;74;20204;-70
2020/12/05 01:03:44;;;;;;;;;;;19.30;72.10;;;;;;1883674;75;20255;-69
2020/12/05 01:06:58;;;;;;;;;;;19.30;71.90;;;;;;1880311;74;20217;-70
2020/12/05 01:08:59;;;;;;;;;;;19.30;72.00;;;;;;1862389;74;20206;-70
2020/12/05 01:11:30;;;;;;;;;;;19.40;72.40;;;;;;1881066;74;20459;-70
2020/12/05 01:14:04;;;;;;;;;;;19.50;72.10;;;;;;1865510;75;20303;-70
2020/12/05 01:16:34;;;;;;;;;;;19.60;71.80;;;;;;1867603;75;20261;-70
2020/12/05 01:19:04;;;;;;;;;;;19.70;71.40;;;;;;1883147;75;20164;-71
2020/12/05 01:21:34;;;;;;;;;;;19.80;71.20;;;;;;1884581;75;20219;-70
2020/12/05 01:24:04;;;;;;;;;;;19.90;70.30;;;;;;1899864;74;20208;-71
2020/12/05 01:26:34;;;;;;;;;;;19.90;70.40;;;;;;1898748;74;20219;-71
2020/12/05 01:29:04;;;;;;;;;;;20.00;70.40;;;;;;1891526;74;20207;-71
2020/12/05 01:31:34;;;;;;;;;;;20.00;70.30;;;;;;1894753;75;20189;-71
2020/12/05 01:34:05;;;;;;;;;;;20.10;70.00;;;;;;1891707;74;20134;-72
2020/12/05 01:36:34;;;;;;;;;;;20.20;69.50;;;;;;1873115;75;20587;-69
2020/12/05 01:39:04;;;;;;;;;;;20.30;68.90;;;;;;1880569;74;20156;-69
2020/12/05 01:41:35;;;;;;;;;;;20.30;68.30;;;;;;1893246;74;20275;-69
2020/12/05 01:44:05;;;;;;;;;;;20.40;68.90;;;;;;1877708;75;20196;-71
2020/12/05 01:46:36;;;;;;;;;;;20.50;68.40;;;;;;1879163;75;20152;-68
2020/12/05 01:49:07;;;;;;;;;;;20.50;68.40;;;;;;1862367;75;20529;-71
2020/12/05 01:51:37;;;;;;;;;;;20.50;67.90;;;;;;1838808;76;20302;-70
2020/12/05 01:54:30;;;;;;;;;;;20.60;67.60;;;;;;1855620;76;20446;-71
2020/12/05 01:56:58;;;;;;;;;;;20.70;67.20;;;;;;1846962;76;20156;-69
2020/12/05 01:59:28;;;;;;;;;;;20.80;66.90;;;;;;1865665;76;20172;-70
2020/12/05 02:01:59;;;;;;;;;;;20.90;66.70;;;;;;1867650;76;20171;-70
2020/12/05 02:04:30;;;;;;;;;;;20.90;66.70;;;;;;1851198;76;20330;-71
2020/12/05 02:07:39;;;;;;;;;;;;;;;;;;;;;
2020/12/05 02:10:17;;;;;;;;;;;21.00;66.10;;;;;;1798655;76;20172;-70
2020/12/05 02:12:48;;;;;;;;;;;21.10;66.10;;;;;;1886377;74;20237;-69
2020/12/05 02:15:21;;;;;;;;;;;21.10;65.90;;;;;;1888610;75;20231;-71
2020/12/05 02:17:57;;;;;;;;;;;21.10;66.20;;;;;;1890994;74;20582;-70
2020/12/05 02:20:28;;;;;;;;;;;21.10;66.60;;;;;;1893161;74;20167;-71
2020/12/05 02:22:59;;;;;;;;;;;21.20;66.00;;;;;;1858907;75;20223;-71
2020/12/05 02:25:28;;;;;;;;;;;21.20;65.20;;;;;;1892220;74;20238;-71
2020/12/05 02:28:01;;;;;;;;;;;21.20;65.10;;;;;;1871626;75;20234;-71
2020/12/05 02:30:32;;;;;;;;;;;21.30;65.50;;;;;;1890958;74;20332;-71
2020/12/05 02:33:03;;;;;;;;;;;21.40;65.50;;;;;;1820656;77;20232;-71
2020/12/05 02:35:34;;;;;;;;;;;21.40;65.10;;;;;;1833395;77;20283;-70
2020/12/05 02:38:06;;;;;;;;;;;21.50;64.80;;;;;;1848981;76;20213;-70
2020/12/05 02:40:42;;;;;;;;;;;21.60;63.10;;;;;;1854422;76;20223;-70
2020/12/05 02:43:43;;;;;;;;;;;21.60;62.80;;;;;;1880213;74;20176;-70
2020/12/05 02:45:45;;;;;;;;;;;21.70;64.50;;;;;;1833768;76;20749;-70
2020/12/05 02:48:14;;;;;;;;;;;21.70;64.90;;;;;;1884537;74;20587;-70
2020/12/05 02:50:44;;;;;;;;;;;21.80;63.30;;;;;;1880401;75;20335;-71
2020/12/05 02:53:14;;;;;;;;;;;21.80;63.50;;;;;;1881069;74;20188;-69
2020/12/05 02:55:44;;;;;;;;;;;21.90;63.90;;;;;;1887703;74;20180;-68
2020/12/05 02:58:25;;;;;;;;;;;21.90;62.30;;;;;;1872700;75;20383;-69
2020/12/05 03:00:57;;;;;;;;;;;21.90;62.30;;;;;;1869072;75;20177;-73
2020/12/05 03:03:27;;;;;;;;;;;22.00;61.70;;;;;;1868421;75;20152;-72
2020/12/05 03:06:18;;;;;;;;;;;22.10;62.10;;;;;;1761463;79;20218;-71
2020/12/05 03:08:48;;;;;;;;;;;22.20;60.30;;;;;;1747621;79;20850;-72
2020/12/05 03:11:17;;;;;;;;;;;22.30;60.00;;;;;;1775148;80;20544;-72
2020/12/05 03:13:47;;;;;;;;;;;22.30;59.90;;;;;;1771379;80;20174;-72
2020/12/05 03:19:02;;;;;;;;;;;22.50;59.70;;;;;;1728347;82;20242;-72
2020/12/05 03:21:52;;;;;;;;;;;22.60;59.60;;;;;;1710528;83;20217;-72
2020/12/05 03:24:20;;;;;;;;;;;22.70;60.30;;;;;;1679058;84;20300;-72
2020/12/05 03:27:05;;;;;;;;;;;22.80;59.30;;;;;;1669332;84;20270;-73
2020/12/05 03:29:37;;;;;;;;;;;22.90;58.70;;;;;;1733121;80;20401;-73
2020/12/05 03:32:55;;;;;;;;;;;23.00;57.70;;;;;;1744911;81;20219;-72
2020/12/05 03:35:30;;;;;;;;;;;23.00;57.80;;;;;;1733384;81;20295;-73
2020/12/05 03:40:58;;;;;;;;;;;23.20;57.80;;;;;;1722619;81;20234;-70
2020/12/05 03:43:29;;;;;;;;;;;23.30;57.70;;;;;;1733837;80;20428;-72
2020/12/05 03:46:00;;;;;;;;;;;23.40;57.40;;;;;;1750786;80;20296;-72
2020/12/05 03:48:29;;;;;;;;;;;23.50;57.80;;;;;;1769508;80;20584;-71
2020/12/05 03:51:22;;;;;;;;;;;23.60;57.10;;;;;;1755859;80;20278;-71
2020/12/05 03:53:42;;;;;;;;;;;23.70;57.00;;;;;;1744274;80;20527;-72
2020/12/05 03:56:14;;;;;;;;;;;23.80;56.20;;;;;;1831869;76;20148;-73
2020/12/05 03:58:43;;;;;;;;;;;23.90;57.80;;;;;;1879308;75;20246;-73
2020/12/05 04:01:13;;;;;;;;;;;23.90;58.20;;;;;;1896438;74;20208;-73
2020/12/05 04:03:42;;;;;;;;;;;23.90;55.80;;;;;;1884515;74;20169;-72
2020/12/05 04:08:51;;;;;;;;;;;24.10;55.30;;;;;;1846705;76;20222;-72
2020/12/05 04:11:27;;;;;;;;;;;24.20;56.30;;;;;;1848258;77;20135;-73
2020/12/05 04:13:57;;;;;;;;;;;24.40;55.50;;;;;;1851989;77;20241;-71
2020/12/05 04:16:33;;;;;;;;;;;24.40;56.70;;;;;;1850943;76;20272;-73
2020/12/05 04:19:24;;;;;;;;;;;24.40;54.70;;;;;;1816901;77;20294;-71
2020/12/05 04:21:54;;;;;;;;;;;24.60;55.60;;;;;;1824708;77;20237;-72
2020/12/05 04:24:24;;;;;;;;;;;24.70;54.20;;;;;;1825318;77;20288;-73
2020/12/05 04:26:56;;;;;;;;;;;24.80;53.50;;;;;;1821323;77;20256;-72
2020/12/05 04:29:26;;;;;;;;;;;24.90;52.40;;;;;;1824248;77;20533;-71
2020/12/05 04:31:56;;;;;;;;;;;25.00;53.50;;;;;;1805941;78;20310;-72
2020/12/05 04:34:26;;;;;;;;;;;25.00;52.40;;;;;;1800774;78;20255;-72
2020/12/05 04:36:56;;;;;;;;;;;25.10;52.20;;;;;;1791454;79;20178;-72
2020/12/05 04:39:27;;;;;;;;;;;25.30;52.80;;;;;;1802563;78;20431;-73
2020/12/05 04:42:03;;;;;;;;;;;25.30;52.10;;;;;;1808699;79;20464;-71
2020/12/05 04:44:33;;;;;;;;;;;25.40;53.50;;;;;;1833783;76;20279;-69
2020/12/05 04:47:03;;;;;;;;;;;25.50;53.20;;;;;;1828019;77;20182;-71
2020/12/05 04:49:35;;;;;;;;;;;25.50;53.50;;;;;;1851541;75;20250;-72
2020/12/05 04:52:06;;;;;;;;;;;25.70;53.20;;;;;;1858926;75;20248;-71
2020/12/05 04:54:37;;;;;;;;;;;25.80;50.70;;;;;;1832799;77;20178;-71
2020/12/05 04:57:08;;;;;;;;;;;25.80;54.40;;;;;;1819818;77;20513;-72
2020/12/05 04:59:38;;;;;;;;;;;25.90;52.50;;;;;;1833326;75;20208;-73
2020/12/05 05:02:09;;;;;;;;;;;25.90;51.90;;;;;;1789831;77;20212;-73
2020/12/05 05:04:58;;;;;;;;;;;26.00;53.00;;;;;;1863656;75;20236;-72
2020/12/05 05:07:29;;;;;;;;;;;26.00;50.10;;;;;;1741296;80;20247;-71
2020/12/05 05:10:13;;;;;;;;;;;26.10;53.80;;;;;;1801797;77;20270;-72
2020/12/05 05:12:37;;;;;;;;;;;26.20;51.60;;;;;;1810516;77;20175;-74
2020/12/05 05:15:08;;;;;;;;;;;26.30;51.10;;;;;;1775779;78;20187;-73
2020/12/05 05:17:39;;;;;;;;;;;26.30;50.40;;;;;;1801780;78;20440;-72
2020/12/05 05:20:16;;;;;;;;;;;26.30;50.30;;;;;;1802555;77;20165;-72
2020/12/05 05:22:47;;;;;;;;;;;26.30;50.10;;;;;;1749135;80;20414;-73
2020/12/05 05:25:17;;;;;;;;;;;26.30;49.20;;;;;;1782540;80;20413;-73
2020/12/05 05:27:48;;;;;;;;;;;26.40;50.50;;;;;;1745814;81;20228;-73
2020/12/05 05:30:18;;;;;;;;;;;26.40;50.60;;;;;;1798203;78;20709;-72
2020/12/05 05:32:50;;;;;;;;;;;26.40;50.80;;;;;;1804474;78;20207;-72
2020/12/05 05:35:19;;;;;;;;;;;26.50;52.10;;;;;;1798345;77;20245;-72
2020/12/05 05:37:49;;;;;;;;;;;26.50;49.50;;;;;;1801977;77;20182;-71
2020/12/05 05:40:20;;;;;;;;;;;26.50;51.20;;;;;;1771565;80;20163;-72
2020/12/05 05:42:50;;;;;;;;;;;26.60;50.50;;;;;;1794906;78;20278;-70
2020/12/05 05:45:21;;;;;;;;;;;26.60;49.90;;;;;;1800730;77;20523;-71
2020/12/05 05:47:52;;;;;;;;;;;26.60;49.00;;;;;;1792718;77;20182;-72
2020/12/05 05:50:23;;;;;;;;;;;26.60;48.90;;;;;;1797985;77;20250;-70
2020/12/05 05:52:54;;;;;;;;;;;26.70;52.40;;;;;;1803463;78;20243;-79
2020/12/05 05:55:25;;;;;;;;;;;26.70;51.90;;;;;;1772758;79;20176;-79
2020/12/05 05:57:56;;;;;;;;;;;26.70;51.50;;;;;;1807579;77;20227;-78
2020/12/05 06:00:27;;;;;;;;;;;26.70;51.30;;;;;;1803636;77;20218;-78
2020/12/05 06:02:58;;;;;;;;;;;26.80;48.50;;;;;;1796447;77;20233;-77
2020/12/05 06:05:30;;;;;;;;;;;26.80;49.20;;;;;;1795270;77;20194;-78
2020/12/05 06:08:03;;;;;;;;;;;26.90;49.50;;;;;;1822790;77;20155;-77
2020/12/05 06:10:33;;;;;;;;;;;26.90;50.30;;;;;;1800750;78;20512;-78
2020/12/05 06:13:03;;;;;;;;;;;26.90;50.50;;;;;;1829143;76;20199;-79
2020/12/05 06:15:33;;;;;;;;;;;26.90;50.50;;;;;;1829577;77;20168;-78
2020/12/05 06:18:03;;;;;;;;;;;27.00;49.60;;;;;;1794848;79;20220;-78
2020/12/05 06:20:39;;;;;;;;;;;27.00;48.60;;;;;;1812088;77;20458;-78
2020/12/05 06:23:10;;;;;;;;;;;27.00;49.90;;;;;;1817695;77;20180;-78
2020/12/05 06:25:44;;;;;;;;;;;27.00;50.20;;;;;;1786489;78;20238;-78
2020/12/05 06:28:17;;;;;;;;;;;27.00;48.00;;;;;;1793109;78;20197;-78
2020/12/05 06:30:45;;;;;;;;;;;27.00;47.50;;;;;;1801237;78;20211;-79
2020/12/05 06:33:16;;;;;;;;;;;27.00;49.30;;;;;;1747933;81;20155;-77
2020/12/05 06:35:46;;;;;;;;;;;27.10;48.00;;;;;;1812397;77;20400;-76
2020/12/05 06:38:16;;;;;;;;;;;27.20;47.50;;;;;;1819188;77;20207;-79
2020/12/05 06:40:47;;;;;;;;;;;27.20;48.20;;;;;;1812821;77;20199;-82
2020/12/05 06:43:17;;;;;;;;;;;27.30;49.00;;;;;;1788021;79;20199;-76
2020/12/05 06:45:47;;;;;;;;;;;27.30;48.90;;;;;;1809875;77;20491;-77
2020/12/05 06:48:18;;;;;;;;;;;27.30;49.50;;;;;;1821146;78;20172;-76
2020/12/05 06:50:48;;;;;;;;;;;27.30;49.40;;;;;;1820781;77;20166;-73
2020/12/05 06:53:19;;;;;;;;;;;27.30;49.60;;;;;;1813908;78;20196;-77
2020/12/05 06:55:51;;;;;;;;;;;27.30;49.90;;;;;;1762721;78;20225;-78
2020/12/05 06:58:22;;;;;;;;;;;27.40;49.80;;;;;;1797466;78;20494;-78
2020/12/05 07:00:57;;;;;;;;;;;27.40;49.20;;;;;;1785090;78;20134;-78
2020/12/05 07:03:28;;;;;;;;;;;27.40;48.70;;;;;;1803018;78;20495;-79
2020/12/05 07:06:03;;;;;;;;;;;27.50;49.00;;;;;;1798841;78;20167;-78
2020/12/05 07:08:36;;;;;;;;;;;27.50;48.80;;;;;;1794998;78;20178;-78
2020/12/05 07:11:07;;;;;;;;;;;27.50;48.30;;;;;;1789336;78;20221;-78
2020/12/05 07:13:39;;;;;;;;;;;27.50;47.90;;;;;;1790112;78;20135;-78
2020/12/05 07:16:10;;;;;;;;;;;27.50;48.20;;;;;;1820824;78;20208;-78
2020/12/05 07:18:46;;;;;;;;;;;27.50;48.30;;;;;;1807267;77;20227;-78
2020/12/05 07:21:13;;;;;;;;;;;27.50;48.30;;;;;;1793499;78;20618;-79
2020/12/05 07:23:43;;;;;;;;;;;27.50;48.80;;;;;;1812110;79;20237;-77
2020/12/05 07:26:14;;;;;;;;;;;27.50;49.00;;;;;;1780737;77;20249;-77
2020/12/05 07:28:45;;;;;;;;;;;27.50;48.10;;;;;;1796162;78;20143;-78
2020/12/05 07:31:16;;;;;;;;;;;27.40;49.00;;;;;;1801700;78;20217;-80
2020/12/05 07:33:47;;;;;;;;;;;27.40;48.10;;;;;;1816541;77;20228;-82
2020/12/05 07:36:22;;;;;;;;;;;27.40;47.80;;;;;;1804093;78;20643;-78
2020/12/05 07:38:49;;;;;;;;;;;27.30;48.30;;;;;;1795452;78;20209;-78
2020/12/05 07:44:18;;;;;;;;;;;27.30;47.80;;;;;;1795087;78;20198;-81
2020/12/05 07:46:48;;;;;;;;;;;27.30;49.10;;;;;;1799804;78;20206;-81
2020/12/05 07:49:18;;;;;;;;;;;27.30;49.00;;;;;;1807267;78;20209;-80
2020/12/05 07:51:49;;;;;;;;;;;27.30;48.90;;;;;;1799151;78;20173;-80
2020/12/05 07:54:20;;;;;;;;;;;27.30;48.60;;;;;;1801256;78;20160;-81
2020/12/05 07:56:54;;;;;;;;;;;27.30;48.70;;;;;;1795672;78;20198;-81
2020/12/05 07:59:58;;;;;;;;;;;27.30;49.30;;;;;;1757783;79;20475;-82
2020/12/05 08:02:32;;;;;;;;;;;27.20;48.40;;;;;;1750025;81;20222;-82
2020/12/05 08:05:03;;;;;;;;;;;27.20;49.00;;;;;;1740963;81;20313;-81
2020/12/05 08:07:35;;;;;;;;;;;27.20;49.70;;;;;;1741248;80;20215;-83
2020/12/05 08:10:06;;;;;;;;;;;27.10;49.20;;;;;;1702325;82;20242;-81
2020/12/05 08:12:36;;;;;;;;;;;27.10;49.40;;;;;;1712485;81;20636;-79
2020/12/05 08:15:06;;;;;;;;;;;27.10;49.30;;;;;;1699630;81;20338;-80
2020/12/05 08:17:37;;;;;;;;;;;27.10;49.60;;;;;;1770481;79;20229;-82
2020/12/05 08:20:07;;;;;;;;;;;27.10;49.30;;;;;;1778733;79;20288;-80
2020/12/05 08:22:38;;;;;;;;;;;27.10;49.20;;;;;;1765360;79;20200;-78
2020/12/05 08:25:09;;;;;;;;;;;27.00;49.30;;;;;;1774979;79;20287;-77
2020/12/05 08:27:40;;;;;;;;;;;27.00;49.40;;;;;;1764120;78;20225;-77
2020/12/05 08:30:29;;;;;;;;;;;27.00;49.20;;;;;;1759913;78;20234;-78
2020/12/05 08:33:02;;;;;;;;;;;27.00;48.90;;;;;;1818450;77;20498;-78
2020/12/05 08:35:33;;;;;;;;;;;27.00;49.50;;;;;;1794144;77;20188;-76
2020/12/05 08:38:04;;;;;;;;;;;26.90;49.60;;;;;;1822155;77;20404;-77
2020/12/05 08:40:34;;;;;;;;;;;26.90;50.10;;;;;;1820326;77;20490;-77
2020/12/05 08:44:35;;;;;;;;;;;27.00;49.90;;;;;;1828953;76;20188;-76
2020/12/05 08:45:55;;;;;;;;;;;26.90;49.30;;;;;;1734982;81;20601;-77
2020/12/05 08:48:28;;;;;;;;;;;26.90;50.20;;;;;;1736455;81;20305;-78
2020/12/05 08:50:59;;;;;;;;;;;26.90;50.20;;;;;;1744543;80;20272;-77
2020/12/05 08:53:29;;;;;;;;;;;26.80;49.50;;;;;;1743149;81;20557;-77
2020/12/05 08:55:58;;;;;;;;;;;26.80;50.10;;;;;;1738438;81;20221;-75
2020/12/05 08:58:29;;;;;;;;;;;26.80;49.80;;;;;;1743206;81;20305;-76
2020/12/05 09:00:59;;;;;;;;;;;26.80;50.00;;;;;;1743284;80;20682;-76
2020/12/05 09:03:29;;;;;;;;;;;26.70;50.00;;;;;;1741973;81;20748;-77
2020/12/05 09:05:59;;;;;;;;;;;26.80;50.20;;;;;;1746139;80;20295;-78
2020/12/05 09:08:32;;;;;;;;;;;26.70;50.60;;;;;;1742026;80;20394;-76
2020/12/05 09:11:02;;;;;;;;;;;26.70;50.20;;;;;;1740101;80;20271;-78
2020/12/05 09:13:32;;;;;;;;;;;26.80;49.70;;;;;;1749070;80;20250;-78
2020/12/05 09:16:03;;;;;;;;;;;26.70;50.30;;;;;;1743958;80;20252;-77
2020/12/05 09:18:34;;;;;;;;;;;26.70;50.50;;;;;;1738014;80;20558;-77
2020/12/05 09:21:05;;;;;;;;;;;26.70;50.00;;;;;;1711666;82;20229;-77
2020/12/05 09:23:35;;;;;;;;;;;26.70;50.30;;;;;;1794645;76;20176;-77
2020/12/05 09:26:06;;;;;;;;;;;26.60;50.50;;;;;;1813617;77;20165;-73
2020/12/05 09:28:36;;;;;;;;;;;26.60;50.90;;;;;;1788942;79;20155;-79
2020/12/05 09:31:17;;;;;;;;;;;26.60;50.90;;;;;;1816460;77;20251;-78
2020/12/05 09:33:43;;;;;;;;;;;26.60;51.50;;;;;;1761323;80;20471;-70
2020/12/05 09:36:14;;;;;;;;;;;26.50;51.20;;;;;;1812025;78;20217;-69
2020/12/05 09:38:45;;;;;;;;;;;26.50;51.20;;;;;;1823903;78;20231;-81
2020/12/05 09:41:15;;;;;;;;;;;26.50;51.10;;;;;;1785736;79;20188;-81
2020/12/05 09:43:45;;;;;;;;;;;26.50;51.30;;;;;;1759375;81;20181;-82
2020/12/05 09:46:15;;;;;;;;;;;26.50;50.50;;;;;;1819975;78;20125;-81
2020/12/05 09:48:45;;;;;;;;;;;26.40;51.20;;;;;;1816834;78;20180;-81
2020/12/05 09:51:15;;;;;;;;;;;26.40;51.30;;;;;;1820767;79;20193;-81
2020/12/05 09:53:45;;;;;;;;;;;26.30;51.50;;;;;;1818290;79;20188;-82
2020/12/05 09:56:15;;;;;;;;;;;26.30;51.70;;;;;;1822355;78;20207;-80
2020/12/05 09:58:45;;;;;;;;;;;26.20;51.60;;;;;;1815658;77;20265;-82
2020/12/05 10:01:15;;;;;;;;;;;26.20;51.70;;;;;;1826027;77;20194;-81
2020/12/05 10:03:45;;;;;;;;;;;26.20;51.40;;;;;;1834856;77;20133;-81
2020/12/05 10:06:15;;;;;;;;;;;26.20;51.70;;;;;;1820336;78;20240;-81
2020/12/05 10:08:45;;;;;;;;;;;26.10;51.80;;;;;;1799820;77;20604;-81
2020/12/05 10:11:15;;;;;;;;;;;26.10;52.00;;;;;;1821617;78;20215;-82
2020/12/05 10:13:45;;;;;;;;;;;26.10;52.20;;;;;;1820227;77;20211;-82
2020/12/05 10:16:16;;;;;;;;;;;26.00;52.00;;;;;;1816095;77;20492;-83
2020/12/05 10:18:45;;;;;;;;;;;26.00;52.20;;;;;;1823133;77;20610;-80
2020/12/05 10:21:15;;;;;;;;;;;26.00;52.10;;;;;;1827572;77;20219;-81
2020/12/05 10:23:45;;;;;;;;;;;25.90;52.30;;;;;;1824631;77;20749;-80
2020/12/05 10:26:15;;;;;;;;;;;25.90;52.40;;;;;;1820719;77;20248;-80
2020/12/05 10:28:44;;;;;;;;;;;25.90;52.50;;;;;;1824055;77;20176;-80
2020/12/05 10:31:14;;;;;;;;;;;25.80;52.60;;;;;;1830880;77;20168;-81
2020/12/05 10:33:44;;;;;;;;;;;25.80;52.70;;;;;;1821346;77;20204;-80
2020/12/05 10:36:15;;;;;;;;;;;25.80;52.80;;;;;;1801207;78;20176;-83
2020/12/05 10:38:45;;;;;;;;;;;25.80;53.00;;;;;;1796398;79;20232;-80
2020/12/05 10:41:15;;;;;;;;;;;25.70;53.10;;;;;;1830489;77;20272;-79
2020/12/05 10:43:45;;;;;;;;;;;25.70;53.20;;;;;;1819575;77;20564;-80
2020/12/05 10:46:15;;;;;;;;;;;25.60;53.30;;;;;;1815269;77;20224;-81
2020/12/05 10:48:45;;;;;;;;;;;25.60;53.40;;;;;;1806108;79;20487;-80
2020/12/05 10:51:16;;;;;;;;;;;25.60;53.50;;;;;;1790628;78;20139;-80
2020/12/05 10:53:47;;;;;;;;;;;25.50;53.70;;;;;;1799013;77;20125;-79
2020/12/05 10:56:16;;;;;;;;;;;25.50;53.80;;;;;;1822146;77;20172;-77
2020/12/05 10:58:48;;;;;;;;;;;25.50;54.00;;;;;;1819672;77;20160;-79
2020/12/05 11:04:20;;;;;;;;;;;25.40;54.20;;;;;;1815186;78;20400;-80
2020/12/05 11:06:50;;;;;;;;;;;25.40;54.30;;;;;;1790834;79;20172;-81
2020/12/05 11:09:20;;;;;;;;;;;25.40;54.30;;;;;;1789606;79;20168;-82
2020/12/05 11:12:09;;;;;;;;;;;25.30;55.10;;;;;;1827093;77;20283;-82
2020/12/05 11:14:39;;;;;;;;;;;25.30;54.60;;;;;;1833085;78;20250;-82
2020/12/05 11:17:12;;;;;;;;;;;25.30;54.70;;;;;;1833502;76;20210;-82
2020/12/05 11:19:45;;;;;;;;;;;25.30;54.80;;;;;;1805659;78;20599;-83
2020/12/05 11:22:16;;;;;;;;;;;25.20;54.80;;;;;;1793115;79;20305;-83
2020/12/05 11:24:46;;;;;;;;;;;25.20;55.10;;;;;;1782944;78;20222;-83
2020/12/05 11:27:16;;;;;;;;;;;25.10;55.10;;;;;;1789046;80;20432;-82
2020/12/05 11:29:46;;;;;;;;;;;25.10;55.10;;;;;;1790358;78;20229;-81
2020/12/05 11:32:19;;;;;;;;;;;25.10;55.30;;;;;;1789728;80;20246;-82
2020/12/05 11:34:47;;;;;;;;;;;25.10;55.50;;;;;;1787738;80;20484;-81
2020/12/05 11:37:17;;;;;;;;;;;25.00;55.50;;;;;;1789690;78;20521;-82
2020/12/05 11:39:48;;;;;;;;;;;25.00;55.60;;;;;;1827411;77;20223;-82
2020/12/05 11:42:27;;;;;;;;;;;25.00;55.90;;;;;;1853606;76;20217;-82
2020/12/05 11:44:58;;;;;;;;;;;25.00;56.50;;;;;;1837568;77;20121;-81
2020/12/05 11:47:28;;;;;;;;;;;24.90;56.00;;;;;;1804880;78;20262;-82
2020/12/05 11:49:58;;;;;;;;;;;24.90;56.10;;;;;;1856974;77;20389;-82
2020/12/05 11:52:28;;;;;;;;;;;24.90;56.10;;;;;;1845263;77;20136;-82
2020/12/05 11:54:58;;;;;;;;;;;24.90;56.30;;;;;;1843661;77;20382;-82
2020/12/05 11:57:28;;;;;;;;;;;24.80;56.30;;;;;;1851478;77;20162;-81
2020/12/05 12:00:00;;;;;;;;;;;24.80;56.40;;;;;;1842219;77;20289;-83
2020/12/05 12:02:40;;;;;;;;;;;24.80;56.40;;;;;;1860245;75;20198;-82
2020/12/05 12:05:09;;;;;;;;;;;24.80;56.40;;;;;;1873259;75;20247;-76
2020/12/05 12:07:39;;;;;;;;;;;24.80;56.70;;;;;;1879137;75;20184;-79
2020/12/05 12:10:09;;;;;;;;;;;24.70;56.90;;;;;;1864654;75;20231;-80
2020/12/05 12:12:39;;;;;;;;;;;24.70;57.20;;;;;;1850628;76;20212;-80
2020/12/05 12:15:10;;;;;;;;;;;24.70;58.10;;;;;;1838968;78;20257;-78
2020/12/05 12:17:39;;;;;;;;;;;24.60;57.00;;;;;;1840425;78;20127;-79
2020/12/05 12:20:10;;;;;;;;;;;24.60;57.40;;;;;;1840475;76;20123;-76
2020/12/05 12:22:40;;;;;;;;;;;24.60;57.40;;;;;;1844213;76;20609;-75
2020/12/05 12:25:10;;;;;;;;;;;24.60;58.00;;;;;;1841920;78;20221;-77
2020/12/05 12:27:39;;;;;;;;;;;24.60;57.70;;;;;;1847359;76;20138;-75
2020/12/05 12:30:09;;;;;;;;;;;24.50;57.80;;;;;;1832966;77;20206;-76
2020/12/05 12:32:39;;;;;;;;;;;24.40;57.70;;;;;;1818776;78;20133;-76
2020/12/05 12:35:09;;;;;;;;;;;24.40;58.80;;;;;;1793092;78;20226;-77
2020/12/05 12:37:39;;;;;;;;;;;24.40;58.30;;;;;;1790232;80;20398;-77
2020/12/05 12:40:09;;;;;;;;;;;24.30;58.10;;;;;;1788213;80;20221;-77
2020/12/05 12:42:42;;;;;;;;;;;24.30;58.00;;;;;;1854636;77;20119;-77
2020/12/05 12:45:12;;;;;;;;;;;24.30;58.00;;;;;;1854535;77;20643;-78
2020/12/05 12:47:58;;;;;;;;;;;24.30;58.60;;;;;;1856475;77;20225;-79
2020/12/05 12:50:14;;;;;;;;;;;24.20;58.20;;;;;;1853427;76;20260;-78
2020/12/05 12:52:45;;;;;;;;;;;24.20;58.40;;;;;;1861773;77;20132;-77
2020/12/05 12:55:15;;;;;;;;;;;24.20;58.60;;;;;;1864678;77;20174;-77
2020/12/05 12:57:47;;;;;;;;;;;24.20;58.50;;;;;;1820079;79;20168;-77
2020/12/05 13:00:25;;;;;;;;;;;24.20;58.50;;;;;;1819895;77;20211;-78
2020/12/05 13:02:56;;;;;;;;;;;24.20;58.30;;;;;;1819109;77;20205;-78
2020/12/05 13:05:25;;;;;;;;;;;24.20;58.70;;;;;;1847899;78;20225;-78
2020/12/05 13:07:56;;;;;;;;;;;24.10;58.50;;;;;;1841656;78;20210;-78
2020/12/05 13:10:26;;;;;;;;;;;24.10;58.70;;;;;;1839695;78;20229;-78
2020/12/05 13:12:56;;;;;;;;;;;24.10;58.70;;;;;;1820991;78;20221;-78
2020/12/05 13:15:26;;;;;;;;;;;24.10;58.80;;;;;;1828833;77;20212;-78
2020/12/05 13:17:56;;;;;;;;;;;24.00;59.70;;;;;;1807202;77;20455;-78
2020/12/05 13:20:26;;;;;;;;;;;24.00;59.10;;;;;;1811202;79;20204;-78
2020/12/05 13:22:56;;;;;;;;;;;24.00;59.00;;;;;;1838620;76;20205;-78
2020/12/05 13:25:26;;;;;;;;;;;23.90;59.40;;;;;;1844576;76;20176;-77
2020/12/05 13:27:56;;;;;;;;;;;23.90;59.40;;;;;;1865012;77;20144;-78
2020/12/05 13:30:26;;;;;;;;;;;23.90;59.30;;;;;;1852047;77;20622;-77
2020/12/05 13:32:56;;;;;;;;;;;23.80;60.50;;;;;;1818840;77;20228;-79
2020/12/05 13:35:26;;;;;;;;;;;23.70;60.00;;;;;;1827148;77;20177;-78
2020/12/05 13:37:56;;;;;;;;;;;23.70;59.90;;;;;;1839325;77;20214;-77
2020/12/05 13:40:26;;;;;;;;;;;23.70;60.30;;;;;;1819852;79;20172;-78
2020/12/05 13:42:56;;;;;;;;;;;23.60;59.80;;;;;;1804648;78;20174;-79
2020/12/05 13:45:26;;;;;;;;;;;23.60;60.40;;;;;;1799632;78;20208;-77
2020/12/05 13:47:56;;;;;;;;;;;23.60;60.20;;;;;;1835557;77;20168;-78
2020/12/05 13:50:27;;;;;;;;;;;23.60;60.40;;;;;;1844756;75;20199;-77
2020/12/05 13:53:00;;;;;;;;;;;23.60;60.00;;;;;;1830402;78;20846;-76
2020/12/05 13:55:30;;;;;;;;;;;23.60;60.60;;;;;;1874772;76;20277;-77
2020/12/05 13:58:00;;;;;;;;;;;23.60;60.50;;;;;;1853897;76;20203;-78
2020/12/05 14:00:30;;;;;;;;;;;23.50;61.10;;;;;;1847897;76;20496;-79
2020/12/05 14:03:03;;;;;;;;;;;23.50;60.80;;;;;;1837153;77;20228;-78
2020/12/05 14:05:33;;;;;;;;;;;23.50;60.80;;;;;;1815367;77;20194;-79
2020/12/05 14:08:03;;;;;;;;;;;23.50;60.90;;;;;;1833028;76;20119;-77
2020/12/05 14:10:33;;;;;;;;;;;23.50;60.50;;;;;;1787398;79;20211;-78
2020/12/05 14:13:03;;;;;;;;;;;23.50;61.00;;;;;;1817940;77;20236;-78
2020/12/05 14:15:38;;;;;;;;;;;23.40;61.10;;;;;;1847748;76;20197;-78
2020/12/05 14:18:11;;;;;;;;;;;23.40;61.80;;;;;;1846487;76;20203;-79
2020/12/05 14:20:41;;;;;;;;;;;23.40;61.50;;;;;;1842022;76;20221;-78
2020/12/05 14:23:10;;;;;;;;;;;23.40;61.60;;;;;;1841733;77;20506;-78
2020/12/05 14:25:43;;;;;;;;;;;23.30;61.70;;;;;;1858666;76;20212;-79
2020/12/05 14:28:16;;;;;;;;;;;23.30;62.20;;;;;;1831627;76;20250;-77
2020/12/05 14:30:48;;;;;;;;;;;23.30;62.60;;;;;;1843305;76;20242;-77
2020/12/05 14:33:18;;;;;;;;;;;23.20;62.40;;;;;;1866167;75;20230;-76
2020/12/05 14:35:56;;;;;;;;;;;23.20;62.30;;;;;;1867683;75;20273;-77
2020/12/05 14:38:23;;;;;;;;;;;23.20;62.30;;;;;;1873101;75;20195;-78
2020/12/05 14:41:09;;;;;;;;;;;23.20;62.60;;;;;;1870152;75;20193;-77
2020/12/05 14:43:36;;;;;;;;;;;23.20;63.20;;;;;;1823846;75;20125;-73
2020/12/05 14:46:12;;;;;;;;;;;23.20;63.00;;;;;;1831295;77;20171;-76
2020/12/05 15:45:59;;;;;;;;;;;22.50;65.60;;;;;;1515043;93;20226;-81
2020/12/05 15:58:11;;;;;;;;;;;;;;;;;;;;;
2020/12/05 16:28:50;;;;;;;;;;;22.00;67.80;;;;;;1532926;89;20339;-80
2020/12/05 16:31:21;;;;;;;;;;;22.00;67.40;;;;;;1668396;84;20270;-80
2020/12/05 16:33:51;;;;;;;;;;;22.00;68.30;;;;;;1666004;84;20248;-80